Terminal Aerodrome Forecast
Issued by NWS Jackson, KY

Home | Current Version | Previous Version | Text Only | Print | Product List | Glossary On
Versions: 1 2 3 4 5 6 7 8 9 10 11 12 13 14 15
000
FTUS43 KJKL 290537
TAFLOZ
TAF
KLOZ 290537Z 2906/3006 00000KT 4SM BR SCT070
      TEMPO 2908/2912 2SM BR SCT070
     FM291200 20006KT P6SM SCT050=

USA.gov is the U.S. government's official web portal to all federal, state and local government web resources and services.